createdAt,value
2019-05-13T00:00:19.845Z,102167.66
2019-05-13T00:03:24.182Z,102156.88
2019-05-13T00:06:28.102Z,102161.78
2019-05-13T00:09:33.978Z,102161.31
2019-05-13T00:12:37.747Z,102164.90
2019-05-13T00:15:44.188Z,102157.72
2019-05-13T00:18:48.066Z,102157.73
2019-05-13T00:21:54.482Z,102155.02
2019-05-13T00:24:58.170Z,102155.42
2019-05-13T00:28:04.183Z,102152.31
2019-05-13T00:31:07.947Z,102154.52
2019-05-13T00:34:14.159Z,102161.70
2019-05-13T00:37:17.672Z,102164.77
2019-05-13T00:40:21.504Z,102163.39
2019-05-13T00:43:25.697Z,102168.30
2019-05-13T00:46:29.851Z,102161.54
2019-05-13T00:49:34.673Z,102166.84
2019-05-13T00:52:38.991Z,102168.17
2019-05-13T00:55:44.522Z,102169.48
2019-05-13T00:58:48.814Z,102167.22
2019-05-13T01:01:53.328Z,102169.92
2019-05-13T01:04:57.490Z,102169.45
2019-05-13T01:08:04.268Z,102164.50
2019-05-13T01:11:07.613Z,102169.86
2019-05-13T01:14:11.511Z,102168.02
2019-05-13T01:17:15.676Z,102165.34
2019-05-13T01:20:19.898Z,102169.34
2019-05-13T01:23:24.234Z,102163.05
2019-05-13T01:26:28.322Z,102167.94
2019-05-13T01:29:34.342Z,102174.57
2019-05-13T01:32:38.456Z,102171.86
2019-05-13T01:35:44.521Z,102167.84
2019-05-13T01:38:48.345Z,102174.08
2019-05-13T01:41:54.051Z,102165.06
2019-05-13T01:44:58.060Z,102171.75
2019-05-13T01:48:06.310Z,102170.84
2019-05-13T01:51:08.609Z,102171.23
2019-05-13T01:54:14.198Z,102173.48
2019-05-13T01:57:18.285Z,102180.19
2019-05-13T02:00:24.183Z,102178.33
2019-05-13T02:03:28.323Z,102181.41
2019-05-13T02:06:33.605Z,102186.72
2019-05-13T02:09:38.129Z,102195.14
2019-05-13T02:12:44.668Z,102192.45
2019-05-13T02:15:48.551Z,102191.03
2019-05-13T02:18:53.710Z,102193.20
2019-05-13T02:21:57.608Z,102191.42
2019-05-13T02:25:04.161Z,102187.38
2019-05-13T02:28:09.865Z,102188.22
2019-05-13T02:31:18.812Z,102193.08
2019-05-13T02:34:22.979Z,102195.22
2019-05-13T02:37:29.302Z,102194.28
2019-05-13T02:40:32.626Z,102190.64
2019-05-13T02:43:41.013Z,102199.55
2019-05-13T02:46:44.246Z,102203.52
2019-05-13T02:49:48.996Z,102211.97
2019-05-13T02:52:53.254Z,102205.71
2019-05-13T02:55:57.231Z,102210.58
2019-05-13T02:59:03.957Z,102216.81
2019-05-13T03:02:07.169Z,102218.11
2019-05-13T03:05:13.685Z,102219.86
2019-05-13T03:08:34.146Z,102215.32
2019-05-13T03:11:23.035Z,102215.33
2019-05-13T03:14:27.704Z,102219.31
2019-05-13T03:17:37.780Z,102225.14
2019-05-13T03:20:43.046Z,102226.89
2019-05-13T03:23:47.547Z,102220.58
2019-05-13T03:26:53.268Z,102231.30
2019-05-13T03:29:58.183Z,102228.62
2019-05-13T03:33:10.293Z,102233.45
2019-05-13T03:36:15.127Z,102230.70
2019-05-13T03:39:16.485Z,102238.20
2019-05-13T03:42:23.971Z,102238.18
2019-05-13T03:45:32.692Z,102237.66
2019-05-13T03:48:38.495Z,102234.13
2019-05-13T03:51:43.018Z,102236.84
2019-05-13T03:54:47.644Z,102246.59
2019-05-13T03:57:53.170Z,102247.03
2019-05-13T04:00:57.767Z,102259.55
2019-05-13T04:04:03.271Z,102258.58
2019-05-13T04:07:07.418Z,102255.47
2019-05-13T04:10:13.186Z,102260.42
2019-05-13T04:13:17.517Z,102260.48
2019-05-13T04:16:23.786Z,102253.37
2019-05-13T04:19:27.960Z,102257.83
2019-05-13T04:22:33.289Z,102257.37
2019-05-13T04:25:39.801Z,102259.66
2019-05-13T04:28:44.292Z,102279.41
2019-05-13T04:31:52.975Z,102272.36
2019-05-13T04:34:54.929Z,102279.11
2019-05-13T04:38:02.985Z,102287.17
2019-05-13T04:41:05.886Z,102297.02
2019-05-13T04:44:13.063Z,102299.81
2019-05-13T04:47:17.018Z,102298.50
2019-05-13T04:50:22.449Z,102297.19
2019-05-13T04:53:27.388Z,102294.48
2019-05-13T04:56:32.968Z,102297.66
2019-05-13T04:59:41.350Z,102308.05
2019-05-13T05:03:32.879Z,102310.48
2019-05-13T05:06:54.066Z,102308.92
2019-05-13T05:10:23.357Z,102292.55
2019-05-13T05:13:56.380Z,102277.27
2019-05-13T05:17:35.622Z,102275.91
2019-05-13T05:21:02.173Z,102267.67
2019-05-13T05:24:28.435Z,102268.48
2019-05-13T05:28:07.911Z,102276.05
2019-05-13T05:31:52.632Z,102287.26
2019-05-13T05:35:32.422Z,102294.52
2019-05-13T05:38:54.150Z,102300.28
2019-05-13T05:42:02.185Z,102300.34
2019-05-13T05:45:07.221Z,102288.39
2019-05-13T05:48:13.339Z,102269.16
2019-05-13T05:51:21.978Z,102263.72
2019-05-13T05:54:27.908Z,102258.20
2019-05-13T05:57:33.855Z,102267.32
2019-05-13T06:00:41.513Z,102261.19
2019-05-13T06:03:46.534Z,102257.11
2019-05-13T06:06:52.210Z,102252.66
2019-05-13T06:09:56.264Z,102257.98
2019-05-13T06:13:02.071Z,102253.45
2019-05-13T06:16:06.569Z,102261.90
2019-05-13T06:19:12.115Z,102263.92
2019-05-13T06:22:16.513Z,102258.44
2019-05-13T06:25:23.469Z,102261.11
2019-05-13T06:28:27.192Z,102257.91
2019-05-13T06:31:32.236Z,102255.45
2019-05-13T06:34:36.799Z,102253.21
2019-05-13T06:37:41.586Z,102248.83
2019-05-13T06:40:59.466Z,102246.93
2019-05-13T06:43:52.413Z,102236.08
2019-05-13T06:46:56.703Z,102250.17
2019-05-13T06:50:03.108Z,102240.20
2019-05-13T06:53:08.505Z,102239.14
2019-05-13T06:56:12.848Z,102243.50
2019-05-13T06:59:17.785Z,102241.56
2019-05-13T07:02:21.839Z,102244.25
2019-05-13T07:05:25.927Z,102236.10
2019-05-13T07:08:31.409Z,102245.56
2019-05-13T07:11:36.053Z,102229.56
2019-05-13T07:14:41.310Z,102233.45
2019-05-13T07:17:45.484Z,102235.02
2019-05-13T07:20:49.720Z,102239.22
2019-05-13T07:23:54.991Z,102234.38
2019-05-13T07:27:01.802Z,102237.06
2019-05-13T07:30:05.827Z,102232.42
2019-05-13T07:33:12.251Z,102230.56
2019-05-13T07:36:15.813Z,102229.23
2019-05-13T07:39:22.169Z,102232.38
2019-05-13T07:42:25.521Z,102230.95
2019-05-13T07:45:31.640Z,102229.11
2019-05-13T07:48:35.142Z,102229.83
2019-05-13T07:51:41.804Z,102223.53
2019-05-13T07:54:45.185Z,102216.27
2019-05-13T07:57:51.525Z,102216.52
2019-05-13T08:00:55.823Z,102216.59
2019-05-13T08:04:02.231Z,102215.91
2019-05-13T08:07:05.776Z,102216.30
2019-05-13T08:10:11.586Z,102215.54
2019-05-13T08:13:15.795Z,102220.98
2019-05-13T08:16:22.360Z,102220.50
2019-05-13T08:19:26.236Z,102226.39
2019-05-13T08:22:32.023Z,102216.97
2019-05-13T08:25:36.226Z,102215.86
2019-05-13T08:28:56.543Z,102211.62
2019-05-13T08:31:46.108Z,102209.58
2019-05-13T08:34:52.495Z,102216.06
2019-05-13T08:37:56.177Z,102208.08
2019-05-13T08:41:01.914Z,102208.08
2019-05-13T08:44:06.173Z,102210.88
2019-05-13T08:47:12.096Z,102202.05
2019-05-13T08:50:16.440Z,102196.31
2019-05-13T08:53:21.225Z,102200.66
2019-05-13T08:56:25.711Z,102194.27
2019-05-13T08:59:31.775Z,102191.39
2019-05-13T09:02:36.225Z,102191.02
2019-05-13T09:05:41.430Z,102193.11
2019-05-13T09:08:45.706Z,102184.62
2019-05-13T09:11:51.596Z,102187.73
2019-05-13T09:14:55.995Z,102181.20
2019-05-13T09:18:02.159Z,102178.80
2019-05-13T09:21:06.048Z,102175.80
2019-05-13T09:24:23.808Z,102173.45
2019-05-13T09:27:16.169Z,102162.20
2019-05-13T09:30:22.253Z,102155.87
2019-05-13T09:33:25.847Z,102157.95
2019-05-13T09:36:32.301Z,102152.74
2019-05-13T09:39:35.658Z,102148.06
2019-05-13T09:42:49.257Z,102147.00
2019-05-13T09:45:45.592Z,102145.66
2019-05-13T09:48:51.651Z,102143.08
2019-05-13T09:51:56.446Z,102140.47
2019-05-13T09:55:03.067Z,102125.52
2019-05-13T09:58:06.681Z,102129.19
2019-05-13T10:01:12.348Z,102126.51
2019-05-13T10:04:16.675Z,102129.09
2019-05-13T10:07:22.959Z,102131.92
2019-05-13T10:10:26.731Z,102136.80
2019-05-13T10:13:31.833Z,102131.58
2019-05-13T10:16:36.425Z,102120.85
2019-05-13T10:19:42.049Z,102118.47
2019-05-13T10:22:46.176Z,102113.57
2019-05-13T10:25:53.331Z,102119.98
2019-05-13T10:28:58.063Z,102120.30
2019-05-13T10:32:04.204Z,102109.62
2019-05-13T10:35:08.243Z,102114.31
2019-05-13T10:38:13.444Z,102113.74
2019-05-13T10:41:17.767Z,102111.51
2019-05-13T10:44:21.924Z,102113.45
2019-05-13T10:47:26.355Z,102098.72
2019-05-13T10:50:31.673Z,102101.23
2019-05-13T10:53:36.400Z,102096.48
2019-05-13T10:56:43.021Z,102099.79
2019-05-13T10:59:46.169Z,102108.52
2019-05-13T11:02:50.572Z,102099.20
2019-05-13T11:05:54.563Z,102095.20
2019-05-13T11:08:58.938Z,102090.69
2019-05-13T11:12:03.973Z,102092.20
2019-05-13T11:15:08.009Z,102093.02
2019-05-13T11:18:19.132Z,102079.89
2019-05-13T11:21:18.447Z,102074.66
2019-05-13T11:24:23.074Z,102076.33
2019-05-13T11:27:27.571Z,102072.82
2019-05-13T11:30:32.044Z,102063.89
2019-05-13T11:33:36.771Z,102072.91
2019-05-13T11:36:43.199Z,102066.78
2019-05-13T11:39:46.823Z,102051.38
2019-05-13T11:42:52.688Z,102051.68
2019-05-13T11:45:57.180Z,102042.08
2019-05-13T11:49:02.482Z,102039.33
2019-05-13T11:52:07.372Z,102027.64
2019-05-13T11:55:13.122Z,102031.56
2019-05-13T11:58:17.656Z,102024.99
2019-05-13T12:01:22.827Z,102021.47
2019-05-13T12:04:27.480Z,102022.55
2019-05-13T12:07:32.952Z,102029.77
2019-05-13T12:10:37.266Z,102024.77
2019-05-13T12:13:42.627Z,102021.56
2019-05-13T12:16:47.078Z,102017.94
2019-05-13T12:19:54.209Z,102024.55
2019-05-13T12:22:57.637Z,102007.92
2019-05-13T12:26:04.264Z,101998.86
2019-05-13T12:29:14.638Z,101999.97
2019-05-13T12:32:13.785Z,101994.69
2019-05-13T12:35:18.136Z,101998.61
2019-05-13T12:38:22.831Z,102002.46
2019-05-13T12:41:27.337Z,101991.86
2019-05-13T12:44:31.718Z,101998.69
2019-05-13T12:47:36.045Z,101987.72
2019-05-13T12:50:42.552Z,101986.94
2019-05-13T12:53:45.823Z,101979.70
2019-05-13T12:56:52.109Z,101979.81
2019-05-13T12:59:55.391Z,101966.02
2019-05-13T13:03:01.494Z,101967.00
2019-05-13T13:06:25.692Z,101969.00
2019-05-13T13:09:12.676Z,101961.34
2019-05-13T13:12:17.427Z,101958.47
2019-05-13T13:15:37.064Z,101954.98
2019-05-13T13:18:27.446Z,101945.78
2019-05-13T13:21:34.274Z,101953.28
2019-05-13T13:24:37.850Z,101950.37
2019-05-13T13:30:52.918Z,101945.66
2019-05-13T13:33:55.861Z,101948.41
2019-05-13T13:36:59.844Z,101945.53
2019-05-13T13:40:04.578Z,101939.76
2019-05-13T13:43:11.581Z,101940.22
2019-05-13T13:46:32.773Z,101945.25
2019-05-13T13:52:26.903Z,101931.55
2019-05-13T13:55:32.155Z,101935.69
2019-05-13T13:58:36.437Z,101928.22
2019-05-13T14:01:40.326Z,101915.77
2019-05-13T14:04:44.754Z,101923.19
2019-05-13T14:06:58.943Z,101939.42
2019-05-13T14:07:52.054Z,101938.73
2019-05-13T14:10:56.131Z,101929.13
2019-05-13T14:14:02.165Z,101920.02
2019-05-13T14:17:06.228Z,101923.89
2019-05-13T14:20:10.795Z,101925.47
2019-05-13T14:23:15.304Z,101927.02
2019-05-13T14:26:21.925Z,101921.63
2019-05-13T14:29:37.553Z,101919.78
2019-05-13T14:32:32.118Z,101914.23
2019-05-13T14:35:36.443Z,101913.00
2019-05-13T14:38:40.378Z,101913.55
2019-05-13T14:41:44.289Z,101917.69
2019-05-13T14:44:48.223Z,101899.88
2019-05-13T14:47:52.210Z,101897.63
2019-05-13T14:50:58.995Z,101902.54
2019-05-13T14:54:02.837Z,101898.02
2019-05-13T14:57:07.173Z,101893.18
2019-05-13T15:00:12.128Z,101901.98
2019-05-13T15:03:16.825Z,101897.29
2019-05-13T15:06:22.180Z,101897.61
2019-05-13T15:09:26.753Z,101893.89
2019-05-13T15:12:32.288Z,101903.06
2019-05-13T15:15:36.685Z,101896.27
2019-05-13T15:18:41.783Z,101901.13
2019-05-13T15:21:45.775Z,101907.06
2019-05-13T15:24:51.867Z,101906.95
2019-05-13T15:27:56.624Z,101907.25
2019-05-13T15:31:01.015Z,101908.25
2019-05-13T15:34:05.626Z,101906.01
2019-05-13T15:37:11.266Z,101898.98
2019-05-13T15:40:15.993Z,101896.23
2019-05-13T15:43:22.402Z,101892.86
2019-05-13T15:46:26.101Z,101892.77
2019-05-13T15:49:32.312Z,101887.52
2019-05-13T15:52:36.472Z,101902.09
2019-05-13T15:55:40.998Z,101898.43
2019-05-13T15:58:45.523Z,101889.46
2019-05-13T16:01:52.267Z,101895.97
2019-05-13T16:05:01.288Z,101895.14
2019-05-13T16:08:01.543Z,101891.52
2019-05-13T16:11:06.008Z,101889.88
2019-05-13T16:14:11.671Z,101891.37
2019-05-13T16:17:16.209Z,101896.75
2019-05-13T16:20:21.356Z,101892.09
2019-05-13T16:23:25.897Z,101889.50
2019-05-13T16:26:31.906Z,101888.57
2019-05-13T16:29:36.091Z,101884.59
2019-05-13T16:32:42.470Z,101893.26
2019-05-13T16:35:47.028Z,101884.91
2019-05-13T16:38:51.715Z,101885.86
2019-05-13T16:41:55.645Z,101889.84
2019-05-13T16:44:59.802Z,101892.61
2019-05-13T16:48:04.319Z,101903.19
2019-05-13T16:51:08.205Z,101905.55
2019-05-13T16:54:12.474Z,101902.52
2019-05-13T16:57:18.280Z,101895.09
2019-05-13T17:00:23.216Z,101901.66
2019-05-13T17:03:27.757Z,101904.25
2019-05-13T17:06:32.222Z,101900.02
2019-05-13T17:09:36.222Z,101904.41
2019-05-13T17:12:42.777Z,101902.98
2019-05-13T17:15:46.779Z,101906.96
2019-05-13T17:18:52.071Z,101903.40
2019-05-13T17:21:56.294Z,101901.14
2019-05-13T17:25:02.596Z,101895.83
2019-05-13T17:28:06.305Z,101908.39
2019-05-13T17:31:11.501Z,101908.39
2019-05-13T17:34:16.166Z,101914.53
2019-05-13T17:37:22.085Z,101909.13
2019-05-13T17:40:26.305Z,101918.91
2019-05-13T17:43:32.010Z,101923.47
2019-05-13T17:46:36.444Z,101926.41
2019-05-13T17:49:41.841Z,101923.95
2019-05-13T17:52:46.128Z,101930.09
2019-05-13T17:55:51.619Z,101928.80
2019-05-13T17:58:56.088Z,101937.36
2019-05-13T18:02:02.557Z,101934.25
2019-05-13T18:05:06.523Z,101936.93
2019-05-13T18:08:11.236Z,101930.61
2019-05-13T18:11:15.376Z,101939.20
2019-05-13T18:14:21.616Z,101931.61
2019-05-13T18:17:25.363Z,101933.70
2019-05-13T18:20:29.276Z,101941.66
2019-05-13T18:23:33.371Z,101939.55
2019-05-13T18:26:37.221Z,101938.95
2019-05-13T18:29:42.115Z,101936.56
2019-05-13T18:32:46.273Z,101941.40
2019-05-13T18:35:52.487Z,101937.54
2019-05-13T18:38:56.647Z,101939.65
2019-05-13T18:42:00.812Z,101942.03
2019-05-13T18:45:04.947Z,101934.44
2019-05-13T18:48:08.880Z,101943.69
2019-05-13T18:51:12.781Z,101950.09
2019-05-13T18:54:17.292Z,101957.39
2019-05-13T18:57:21.459Z,101960.56
2019-05-13T19:00:25.542Z,101962.02
2019-05-13T19:03:32.035Z,101968.01
2019-05-13T19:06:35.919Z,101968.00
2019-05-13T19:09:41.731Z,101963.47
2019-05-13T19:12:46.300Z,101971.52
2019-05-13T19:15:51.713Z,101972.24
2019-05-13T19:18:56.375Z,101984.72
2019-05-13T19:22:02.192Z,101980.02
2019-05-13T19:25:06.938Z,101992.55
2019-05-13T19:28:11.830Z,101992.42
2019-05-13T19:31:16.189Z,101988.61
2019-05-13T19:34:21.523Z,101994.27
2019-05-13T19:37:25.703Z,101994.48
2019-05-13T19:40:31.294Z,101995.63
2019-05-13T19:43:35.325Z,101995.34
2019-05-13T19:46:41.915Z,101992.72
2019-05-13T19:49:46.596Z,101988.80
2019-05-13T19:52:51.883Z,101991.69
2019-05-13T19:55:56.040Z,102001.42
2019-05-13T19:59:01.535Z,101990.70
2019-05-13T20:02:05.582Z,101992.20
2019-05-13T20:05:09.572Z,101992.80
2019-05-13T20:08:13.746Z,101993.78
2019-05-13T20:11:17.925Z,102000.67
2019-05-13T20:14:22.527Z,102001.70
2019-05-13T20:17:26.918Z,102003.66
2019-05-13T20:20:31.742Z,102007.38
2019-05-13T20:23:36.288Z,102002.57
2019-05-13T20:26:41.414Z,102005.39
2019-05-13T20:29:45.856Z,102005.06
2019-05-13T20:32:51.505Z,102000.16
2019-05-13T20:35:56.120Z,102006.70
2019-05-13T20:39:02.060Z,102005.08
2019-05-13T20:42:06.273Z,102009.34
2019-05-13T20:45:11.513Z,102009.96
2019-05-13T20:48:15.891Z,102013.70
2019-05-13T20:51:21.817Z,102009.77
2019-05-13T20:54:25.703Z,102010.32
2019-05-13T20:57:32.208Z,102013.61
2019-05-13T21:00:35.729Z,102014.65
2019-05-13T21:03:41.843Z,102012.11
2019-05-13T21:06:46.484Z,102015.39
2019-05-13T21:09:51.225Z,102019.65
2019-05-13T21:12:55.815Z,102021.05
2019-05-13T21:16:02.352Z,102030.64
2019-05-13T21:19:06.398Z,102017.73
2019-05-13T21:22:11.869Z,102017.44
2019-05-13T21:25:16.451Z,102012.59
2019-05-13T21:28:22.015Z,102017.19
2019-05-13T21:31:26.419Z,102017.28
2019-05-13T21:34:31.553Z,102018.19
2019-05-13T21:37:36.451Z,102029.92
2019-05-13T21:40:41.568Z,102025.48
2019-05-13T21:43:46.023Z,102023.71
2019-05-13T21:46:51.526Z,102021.92
2019-05-13T21:49:55.751Z,102014.36
2019-05-13T21:53:01.971Z,102008.19
2019-05-13T21:56:05.787Z,102011.42
2019-05-13T21:59:09.698Z,102013.27
2019-05-13T22:02:13.855Z,102015.60
2019-05-13T22:05:18.344Z,102011.61
2019-05-13T22:08:22.871Z,102017.97
2019-05-13T22:11:26.714Z,102012.67
2019-05-13T22:14:31.963Z,102006.95
2019-05-13T22:17:36.322Z,102010.16
2019-05-13T22:20:49.771Z,102010.23
2019-05-13T22:23:47.304Z,102008.03
2019-05-13T22:26:51.710Z,102013.44
2019-05-13T22:29:56.286Z,102012.09
2019-05-13T22:33:01.770Z,102013.06
2019-05-13T22:36:05.776Z,102007.27
2019-05-13T22:39:11.520Z,102014.45
2019-05-13T22:42:15.567Z,102007.72
2019-05-13T22:45:21.768Z,102011.35
2019-05-13T22:48:25.296Z,102001.92
2019-05-13T22:51:31.821Z,102005.60
2019-05-13T22:54:35.258Z,102003.36
2019-05-13T22:57:41.750Z,102004.75
2019-05-13T23:00:45.479Z,102002.95
2019-05-13T23:03:51.476Z,102004.34
2019-05-13T23:06:55.683Z,102006.13
2019-05-13T23:10:00.573Z,102013.32
2019-05-13T23:13:04.480Z,102011.11
2019-05-13T23:16:08.892Z,101999.88
2019-05-13T23:19:13.370Z,102004.38
2019-05-13T23:22:17.765Z,102002.61
2019-05-13T23:25:22.177Z,102003.55
2019-05-13T23:28:26.359Z,101997.28
2019-05-13T23:31:31.034Z,102004.48
2019-05-13T23:34:34.946Z,101995.98
2019-05-13T23:37:41.513Z,101989.73
2019-05-13T23:40:45.727Z,101990.63
2019-05-13T23:43:50.051Z,101983.91
2019-05-13T23:46:54.288Z,101984.80
2019-05-13T23:49:58.374Z,101977.19
2019-05-13T23:53:02.579Z,101978.09
2019-05-13T23:56:06.735Z,101977.64
2019-05-13T23:59:11.588Z,101982.59
